createdAt,value
2019-02-19T00:03:07.830Z,18.03
2019-02-19T00:05:18.671Z,15.33
2019-02-19T00:07:29.525Z,15.40
2019-02-19T00:09:40.317Z,15.73
2019-02-19T00:11:51.132Z,18.10
2019-02-19T00:14:01.943Z,15.37
2019-02-19T00:16:12.779Z,15.33
2019-02-19T00:18:23.582Z,14.63
2019-02-19T00:20:34.428Z,12.23
2019-02-19T00:22:45.247Z,13.87
2019-02-19T00:24:56.057Z,13.37
2019-02-19T00:27:06.879Z,15.33
2019-02-19T00:29:17.669Z,14.70
2019-02-19T00:31:28.485Z,18.80
2019-02-19T00:33:39.288Z,16.03
2019-02-19T00:35:50.093Z,17.03
2019-02-19T00:38:00.913Z,14.43
2019-02-19T00:40:11.717Z,22.33
2019-02-19T00:42:22.526Z,11.93
2019-02-19T00:44:33.337Z,14.50
2019-02-19T00:46:44.146Z,14.13
2019-02-19T00:48:54.945Z,15.40
2019-02-19T00:51:05.843Z,20.53
2019-02-19T00:53:16.653Z,16.03
2019-02-19T00:55:27.472Z,15.30
2019-02-19T00:57:38.290Z,17.80
2019-02-19T00:59:49.107Z,13.57
2019-02-19T01:01:59.917Z,16.37
2019-02-19T01:04:10.743Z,14.60
2019-02-19T01:06:21.552Z,15.73
2019-02-19T01:08:32.370Z,15.00
2019-02-19T01:10:43.158Z,15.37
2019-02-19T01:12:54.005Z,20.27
2019-02-19T01:15:26.566Z,13.93
2019-02-19T01:17:37.399Z,16.53
2019-02-19T01:19:48.209Z,12.03
2019-02-19T01:21:58.998Z,15.27
2019-02-19T01:24:09.835Z,14.87
2019-02-19T01:26:20.621Z,15.77
2019-02-19T01:28:31.430Z,12.60
2019-02-19T01:30:42.229Z,14.97
2019-02-19T01:32:53.027Z,13.13
2019-02-19T01:35:45.489Z,13.80
2019-02-19T01:37:56.291Z,11.30
2019-02-19T01:40:48.760Z,14.60
2019-02-19T01:42:59.548Z,13.07
2019-02-19T01:45:10.366Z,16.33
2019-02-19T01:47:41.053Z,13.70
2019-02-19T01:49:51.869Z,16.40
2019-02-19T01:52:02.654Z,15.50
2019-02-19T01:54:13.471Z,16.03
2019-02-19T01:56:24.269Z,13.70
2019-02-19T01:58:35.093Z,12.80
2019-02-19T02:00:45.901Z,12.30
2019-02-19T02:02:56.794Z,17.60
2019-02-19T02:05:07.699Z,12.37
2019-02-19T02:07:18.499Z,14.13
2019-02-19T02:09:29.318Z,14.70
2019-02-19T02:11:40.146Z,14.13
2019-02-19T02:13:50.958Z,14.87
2019-02-19T02:16:01.866Z,12.80
2019-02-19T02:18:12.657Z,11.60
2019-02-19T02:20:23.497Z,13.63
2019-02-19T02:22:34.421Z,13.43
2019-02-19T02:24:45.228Z,12.37
2019-02-19T02:26:56.052Z,13.40
2019-02-19T02:29:06.841Z,13.77
2019-02-19T02:31:17.650Z,13.77
2019-02-19T02:33:28.446Z,12.97
2019-02-19T02:35:39.270Z,12.17
2019-02-19T02:37:50.064Z,12.87
2019-02-19T02:40:01.056Z,12.80
2019-02-19T02:42:11.899Z,14.47
2019-02-19T02:44:22.668Z,13.80
2019-02-19T02:46:33.486Z,13.13
2019-02-19T02:48:44.270Z,10.67
2019-02-19T02:50:55.092Z,15.17
2019-02-19T02:53:05.887Z,13.47
2019-02-19T02:55:16.843Z,13.57
2019-02-19T02:57:27.660Z,13.27
2019-02-19T02:59:38.484Z,15.37
2019-02-19T03:01:49.398Z,14.90
2019-02-19T03:04:20.097Z,13.27
2019-02-19T03:08:49.928Z,12.53
2019-02-19T03:11:00.733Z,13.40
2019-02-19T03:13:11.549Z,14.10
2019-02-19T03:15:22.349Z,11.93
2019-02-19T03:17:33.155Z,12.77
2019-02-19T03:19:43.970Z,13.60
2019-02-19T03:21:54.771Z,13.23
2019-02-19T03:24:05.569Z,12.03
2019-02-19T03:26:16.351Z,13.67
2019-02-19T03:28:27.169Z,13.83
2019-02-19T03:30:37.977Z,12.57
2019-02-19T03:32:48.793Z,15.03
2019-02-19T03:34:59.572Z,14.07
2019-02-19T03:37:10.403Z,12.43
2019-02-19T03:39:21.186Z,16.37
2019-02-19T03:41:32.101Z,15.07
2019-02-19T03:43:42.934Z,15.50
2019-02-19T03:45:53.736Z,16.77
2019-02-19T03:48:04.547Z,13.33
2019-02-19T03:50:15.347Z,14.13
2019-02-19T03:52:26.157Z,14.83
2019-02-19T03:54:36.971Z,12.33
2019-02-19T03:56:47.803Z,15.70
2019-02-19T03:58:58.610Z,16.03
2019-02-19T04:01:09.538Z,13.60
2019-02-19T04:03:20.370Z,15.77
2019-02-19T04:05:31.156Z,15.87
2019-02-19T04:07:41.947Z,16.03
2019-02-19T04:09:52.768Z,18.27
2019-02-19T04:12:03.572Z,15.20
2019-02-19T04:14:14.377Z,15.97
2019-02-19T04:16:25.283Z,16.27
2019-02-19T04:18:36.083Z,16.40
2019-02-19T04:20:46.889Z,15.97
2019-02-19T04:22:57.684Z,15.93
2019-02-19T04:25:08.496Z,16.43
2019-02-19T04:28:00.947Z,15.50
2019-02-19T04:30:11.768Z,18.33
2019-02-19T04:32:22.556Z,15.07
2019-02-19T04:34:33.361Z,17.30
2019-02-19T04:36:44.154Z,14.73
2019-02-19T04:38:54.946Z,16.30
2019-02-19T04:41:05.756Z,14.20
2019-02-19T04:43:16.540Z,17.07
2019-02-19T04:45:27.368Z,15.77
2019-02-19T04:47:38.158Z,13.10
2019-02-19T04:49:48.979Z,15.87
2019-02-19T04:51:59.762Z,15.73
2019-02-19T04:54:10.565Z,16.60
2019-02-19T04:56:21.406Z,15.30
2019-02-19T04:58:32.189Z,15.03
2019-02-19T05:00:43.025Z,15.37
2019-02-19T05:02:53.824Z,16.93
2019-02-19T05:05:46.285Z,16.30
2019-02-19T05:07:57.087Z,15.20
2019-02-19T05:10:08.115Z,16.60
2019-02-19T05:12:18.913Z,15.67
2019-02-19T05:14:29.698Z,14.30
2019-02-19T05:16:41.258Z,17.03
2019-02-19T05:21:25.588Z,17.40
2019-02-19T05:23:36.380Z,15.80
2019-02-19T05:25:47.193Z,16.87
2019-02-19T05:27:57.990Z,14.97
2019-02-19T05:30:50.443Z,14.70
2019-02-19T05:33:01.268Z,16.83
2019-02-19T05:35:12.059Z,16.67
2019-02-19T05:37:22.875Z,15.77
2019-02-19T05:39:33.676Z,15.93
2019-02-19T05:41:44.493Z,13.17
2019-02-19T05:43:55.291Z,15.17
2019-02-19T05:46:06.123Z,15.83
2019-02-19T05:48:17.011Z,15.70
2019-02-19T05:50:27.809Z,16.13
2019-02-19T05:52:38.621Z,15.53
2019-02-19T05:54:50.634Z,17.70
2019-02-19T05:57:21.444Z,24.23
2019-02-19T05:59:32.616Z,15.47
2019-02-19T06:01:45.029Z,18.53
2019-02-19T06:03:55.833Z,15.53
2019-02-19T06:06:06.631Z,13.17
2019-02-19T06:08:17.436Z,13.33
2019-02-19T06:10:28.238Z,12.77
2019-02-19T06:12:39.052Z,11.17
2019-02-19T06:14:49.845Z,8.30
2019-02-19T06:17:00.682Z,12.03
2019-02-19T06:19:11.595Z,13.77
2019-02-19T06:21:22.439Z,15.07
2019-02-19T06:23:33.276Z,11.50
2019-02-19T06:25:44.075Z,11.30
2019-02-19T06:27:54.949Z,11.77
2019-02-19T06:30:25.616Z,13.37
2019-02-19T06:32:36.425Z,13.73
2019-02-19T06:34:47.219Z,13.70
2019-02-19T06:36:58.019Z,13.60
2019-02-19T06:39:08.854Z,13.07
2019-02-19T06:41:19.657Z,14.07
2019-02-19T06:43:30.504Z,13.80
2019-02-19T06:45:41.301Z,12.60
2019-02-19T06:47:52.119Z,14.93
2019-02-19T06:50:44.571Z,13.57
2019-02-19T06:52:55.389Z,10.77
2019-02-19T06:55:06.216Z,14.07
2019-02-19T06:57:17.006Z,13.30
2019-02-19T06:59:27.925Z,12.43
2019-02-19T07:06:30.763Z,14.93
2019-02-19T07:08:42.770Z,15.87
2019-02-19T07:10:53.572Z,12.87
2019-02-19T07:13:04.382Z,14.40
2019-02-19T07:15:15.300Z,10.77
2019-02-19T07:17:26.102Z,11.13
2019-02-19T07:19:36.945Z,13.53
2019-02-19T07:21:47.730Z,9.27
2019-02-19T07:24:04.378Z,7.93
2019-02-19T07:26:11.249Z,10.27
2019-02-19T07:28:22.060Z,11.40
2019-02-19T07:30:32.880Z,7.73
2019-02-19T07:32:43.719Z,8.47
2019-02-19T07:34:54.531Z,7.17
2019-02-19T07:37:05.400Z,6.73
2019-02-19T07:39:16.199Z,8.73
2019-02-19T07:41:27.025Z,9.50
2019-02-19T07:43:37.854Z,7.00
2019-02-19T07:45:48.662Z,10.27
2019-02-19T07:47:59.454Z,6.97
2019-02-19T07:50:51.920Z,8.57
2019-02-19T07:53:02.728Z,6.63
2019-02-19T07:55:13.582Z,5.73
2019-02-19T07:57:24.365Z,6.63
2019-02-19T07:59:35.235Z,8.67
2019-02-19T08:01:46.007Z,7.70
2019-02-19T08:03:56.835Z,9.13
2019-02-19T08:06:07.658Z,7.80
2019-02-19T08:08:18.525Z,7.00
2019-02-19T08:10:29.346Z,7.60
2019-02-19T08:12:40.161Z,6.10
2019-02-19T08:14:50.973Z,6.57
2019-02-19T08:17:01.782Z,7.30
2019-02-19T08:19:12.599Z,8.97
2019-02-19T08:21:23.475Z,9.53
2019-02-19T08:23:34.261Z,7.57
2019-02-19T08:25:45.065Z,8.03
2019-02-19T08:27:55.891Z,8.10
2019-02-19T08:30:48.399Z,7.53
2019-02-19T08:32:59.206Z,6.70
2019-02-19T08:35:10.009Z,5.57
2019-02-19T08:37:20.827Z,8.87
2019-02-19T08:39:31.618Z,6.23
2019-02-19T08:41:42.525Z,6.83
2019-02-19T08:43:53.328Z,7.10
2019-02-19T08:46:04.137Z,6.53
2019-02-19T08:48:14.948Z,6.03
2019-02-19T08:50:25.838Z,6.67
2019-02-19T08:52:36.669Z,5.73
2019-02-19T08:54:47.456Z,6.00
2019-02-19T08:56:58.311Z,6.23
2019-02-19T08:59:09.093Z,5.20
2019-02-19T09:01:19.908Z,5.53
2019-02-19T09:03:30.727Z,6.13
2019-02-19T09:05:41.534Z,4.80
2019-02-19T09:07:52.342Z,4.70
2019-02-19T09:10:24.910Z,6.73
2019-02-19T09:12:35.746Z,4.03
2019-02-19T09:14:46.550Z,5.27
2019-02-19T09:16:57.456Z,5.60
2019-02-19T09:19:08.269Z,5.93
2019-02-19T09:21:19.116Z,4.83
2019-02-19T09:23:29.938Z,7.17
2019-02-19T09:25:40.731Z,5.40
2019-02-19T09:27:51.588Z,6.20
2019-02-19T09:30:44.017Z,6.07
2019-02-19T09:32:54.838Z,8.07
2019-02-19T09:35:47.309Z,5.50
2019-02-19T09:37:58.156Z,5.20
2019-02-19T09:40:50.588Z,5.47
2019-02-19T09:43:01.418Z,7.97
2019-02-19T09:45:12.315Z,6.53
2019-02-19T09:47:23.120Z,7.23
2019-02-19T09:49:33.921Z,6.37
2019-02-19T09:54:36.952Z,8.23
2019-02-19T09:56:47.745Z,7.10
2019-02-19T09:58:58.572Z,5.20
2019-02-19T10:01:09.378Z,8.27
2019-02-19T10:05:52.546Z,7.73
2019-02-19T10:08:03.352Z,8.07
2019-02-19T10:10:55.823Z,7.67
2019-02-19T10:13:06.645Z,7.50
2019-02-19T10:15:17.449Z,5.90
2019-02-19T10:17:28.247Z,6.37
2019-02-19T10:19:39.075Z,6.40
2019-02-19T10:21:49.881Z,5.37
2019-02-19T10:24:00.713Z,6.37
2019-02-19T10:26:11.532Z,6.10
2019-02-19T10:28:22.332Z,8.37
2019-02-19T10:30:33.146Z,9.63
2019-02-19T10:32:43.959Z,7.47
2019-02-19T10:34:54.756Z,8.00
2019-02-19T10:37:05.653Z,6.37
2019-02-19T10:39:16.452Z,18.40
2019-02-19T10:41:27.273Z,7.83
2019-02-19T10:43:38.055Z,7.83
2019-02-19T10:45:48.987Z,9.23
2019-02-19T10:47:59.768Z,8.37
2019-02-19T10:50:10.660Z,8.40
2019-02-19T10:52:21.615Z,7.37
2019-02-19T10:54:32.413Z,8.87
2019-02-19T10:56:50.246Z,8.23
2019-02-19T10:59:01.048Z,7.47
2019-02-19T11:01:11.969Z,8.30
2019-02-19T11:03:22.777Z,7.87
2019-02-19T11:05:33.590Z,9.73
2019-02-19T11:07:44.400Z,10.73
2019-02-19T11:09:55.207Z,11.23
2019-02-19T11:12:06.021Z,8.20
2019-02-19T11:14:16.809Z,8.50
2019-02-19T11:16:27.658Z,8.20
2019-02-19T11:18:38.449Z,6.90
2019-02-19T11:20:49.271Z,9.17
2019-02-19T11:23:00.112Z,7.33
2019-02-19T11:25:52.578Z,9.80
2019-02-19T11:28:03.385Z,13.53
2019-02-19T11:30:55.860Z,7.40
2019-02-19T11:33:06.675Z,8.37
2019-02-19T11:35:17.477Z,12.03
2019-02-19T11:37:28.291Z,13.60
2019-02-19T11:39:39.086Z,10.80
2019-02-19T11:41:49.922Z,10.13
2019-02-19T11:44:00.737Z,9.43
2019-02-19T11:46:11.530Z,9.60
2019-02-19T11:48:22.344Z,7.70
2019-02-19T11:50:33.157Z,11.97
2019-02-19T11:52:43.992Z,10.50
2019-02-19T11:54:54.800Z,11.50
2019-02-19T11:57:05.597Z,9.17
2019-02-19T11:59:16.420Z,9.43
2019-02-19T12:01:27.220Z,9.47
2019-02-19T12:03:38.039Z,11.27
2019-02-19T12:05:48.918Z,8.93
2019-02-19T12:07:59.738Z,7.50
2019-02-19T12:10:12.030Z,8.50
2019-02-19T12:12:23.375Z,8.07
2019-02-19T12:14:34.265Z,9.87
2019-02-19T12:16:45.060Z,6.13
2019-02-19T12:18:55.912Z,8.00
2019-02-19T12:21:06.726Z,7.50
2019-02-19T12:23:17.567Z,9.97
2019-02-19T12:25:28.368Z,9.40
2019-02-19T12:27:39.185Z,11.70
2019-02-19T12:29:50.009Z,11.90
2019-02-19T12:32:00.817Z,8.73
2019-02-19T12:34:11.645Z,9.20
2019-02-19T12:36:22.460Z,10.23
2019-02-19T12:38:33.265Z,8.97
2019-02-19T12:40:44.086Z,8.47
2019-02-19T12:42:54.875Z,9.70
2019-02-19T12:45:47.355Z,7.63
2019-02-19T12:47:58.167Z,10.60
2019-02-19T12:50:50.633Z,8.20
2019-02-19T12:53:01.435Z,9.60
2019-02-19T12:55:12.344Z,10.07
2019-02-19T12:57:23.125Z,12.40
2019-02-19T12:59:33.939Z,10.83
2019-02-19T13:01:44.762Z,8.10
2019-02-19T13:03:55.585Z,9.90
2019-02-19T13:06:06.403Z,10.20
2019-02-19T13:08:17.199Z,10.83
2019-02-19T13:10:27.997Z,11.20
2019-02-19T13:12:38.813Z,11.17
2019-02-19T13:14:49.619Z,10.00
2019-02-19T13:17:00.449Z,9.53
2019-02-19T13:19:11.254Z,10.70
2019-02-19T13:21:22.070Z,9.63
2019-02-19T13:23:32.876Z,12.83
2019-02-19T13:25:43.687Z,13.10
2019-02-19T13:27:54.521Z,11.77
2019-02-19T13:30:46.998Z,10.17
2019-02-19T13:32:57.801Z,10.83
2019-02-19T13:35:50.762Z,11.27
2019-02-19T13:38:01.596Z,11.97
2019-02-19T13:40:54.069Z,9.73
2019-02-19T13:43:04.891Z,14.60
2019-02-19T13:45:15.799Z,13.60
2019-02-19T13:47:26.637Z,12.33
2019-02-19T13:49:37.454Z,10.17
2019-02-19T13:51:48.391Z,11.77
2019-02-19T13:54:19.096Z,12.97
2019-02-19T13:56:29.893Z,11.77
2019-02-19T13:58:40.721Z,9.97
2019-02-19T14:00:51.515Z,12.10
2019-02-19T14:03:02.449Z,11.67
2019-02-19T14:05:13.272Z,11.47
2019-02-19T14:07:24.139Z,10.23
2019-02-19T14:09:34.985Z,13.80
2019-02-19T14:11:45.809Z,10.90
2019-02-19T14:18:54.448Z,12.57
2019-02-19T14:23:57.485Z,12.13
2019-02-19T14:26:28.183Z,11.70
2019-02-19T14:28:58.880Z,10.97
2019-02-19T14:31:29.570Z,12.73
2019-02-19T14:34:00.264Z,12.53
2019-02-19T14:36:30.942Z,14.03
2019-02-19T14:39:01.639Z,13.17
2019-02-19T14:41:32.414Z,11.00
2019-02-19T14:44:03.133Z,11.47
2019-02-19T14:46:33.799Z,12.07
2019-02-19T14:49:04.510Z,12.43
2019-02-19T14:54:07.570Z,12.30
2019-02-19T14:56:38.268Z,11.83
2019-02-19T15:01:41.311Z,11.37
2019-02-19T15:04:12.025Z,12.07
2019-02-19T15:06:42.724Z,13.07
2019-02-19T15:09:13.405Z,16.90
2019-02-19T15:11:44.124Z,12.27
2019-02-19T15:14:14.808Z,13.80
2019-02-19T15:16:45.499Z,12.60
2019-02-19T15:19:19.907Z,13.30
2019-02-19T15:24:07.418Z,14.20
2019-02-19T15:28:57.185Z,10.93
2019-02-19T15:31:27.869Z,13.90
2019-02-19T15:33:58.562Z,13.83
2019-02-19T15:36:29.348Z,13.50
2019-02-19T15:39:00.018Z,14.70
2019-02-19T15:41:30.728Z,19.63
2019-02-19T15:44:01.416Z,14.83
2019-02-19T15:49:04.585Z,16.17
2019-02-19T15:51:35.272Z,14.00
2019-02-19T15:56:38.353Z,16.77
2019-02-19T15:59:09.121Z,16.00
2019-02-19T16:06:30.596Z,12.80
2019-02-19T16:11:33.728Z,12.97
2019-02-19T16:14:04.435Z,14.40
2019-02-19T16:19:07.614Z,12.57
2019-02-19T16:21:38.306Z,13.27
2019-02-19T16:24:09.002Z,12.60
2019-02-19T16:33:49.709Z,12.27
2019-02-19T16:38:52.809Z,12.57
2019-02-19T16:41:23.597Z,11.03
2019-02-19T16:43:54.308Z,13.10
2019-02-19T16:48:57.373Z,11.63
2019-02-19T16:51:28.058Z,12.03
2019-02-19T16:53:58.754Z,11.70
2019-02-19T16:56:29.937Z,12.23
2019-02-19T16:59:07.232Z,14.23
2019-02-19T17:01:33.247Z,10.43
2019-02-19T17:04:03.976Z,11.93
2019-02-19T17:09:07.069Z,10.53
2019-02-19T17:13:58.538Z,12.47
2019-02-19T17:16:28.912Z,12.93
2019-02-19T17:18:59.604Z,13.33
2019-02-19T17:21:30.327Z,13.70
2019-02-19T17:31:10.662Z,13.47
2019-02-19T17:33:41.359Z,11.37
2019-02-19T17:36:12.063Z,15.80
2019-02-19T17:38:42.750Z,14.50
2019-02-19T17:45:51.106Z,13.60
2019-02-19T17:48:21.793Z,12.50
2019-02-19T17:53:14.924Z,14.13
2019-02-19T18:02:55.394Z,17.67
2019-02-19T18:05:26.174Z,17.23
2019-02-19T18:07:56.878Z,15.10
2019-02-19T18:10:27.676Z,14.90
2019-02-19T18:15:17.398Z,14.30
2019-02-19T18:17:48.225Z,16.53
2019-02-19T18:19:59.041Z,14.90
2019-02-19T18:22:09.896Z,14.93
2019-02-19T18:24:21.027Z,13.33
2019-02-19T18:26:53.563Z,13.33
2019-02-19T18:29:04.386Z,13.90
2019-02-19T18:31:15.185Z,13.97
2019-02-19T18:33:26.021Z,15.73
2019-02-19T18:35:36.919Z,15.00
2019-02-19T18:37:47.757Z,15.57
2019-02-19T18:39:58.584Z,15.80
2019-02-19T18:42:09.414Z,16.30
2019-02-19T18:44:20.245Z,16.77
2019-02-19T18:46:31.048Z,16.70
2019-02-19T18:48:41.870Z,15.97
2019-02-19T18:50:58.420Z,14.60
2019-02-19T18:53:05.569Z,13.47
2019-02-19T18:55:16.459Z,12.80
2019-02-19T18:57:27.264Z,15.10
2019-02-19T18:59:38.083Z,15.90
2019-02-19T19:01:48.889Z,17.63
2019-02-19T19:03:59.785Z,16.77
2019-02-19T19:06:10.575Z,14.73
2019-02-19T19:08:21.412Z,15.53
2019-02-19T19:10:32.379Z,14.20
2019-02-19T19:12:43.307Z,14.17
2019-02-19T19:14:54.176Z,15.27
2019-02-19T19:17:05.082Z,13.73
2019-02-19T19:19:15.930Z,17.20
2019-02-19T19:21:26.827Z,15.87
2019-02-19T19:23:37.659Z,15.43
2019-02-19T19:25:48.647Z,16.30
2019-02-19T19:27:59.437Z,15.83
2019-02-19T19:30:30.178Z,16.40
2019-02-19T19:32:40.982Z,14.60
2019-02-19T19:34:51.805Z,14.60
2019-02-19T19:37:02.650Z,15.50
2019-02-19T19:39:13.475Z,16.07
2019-02-19T19:41:24.311Z,13.37
2019-02-19T19:43:37.190Z,14.57
2019-02-19T19:45:47.887Z,16.63
2019-02-19T19:47:58.706Z,16.77
2019-02-19T19:50:31.328Z,17.37
2019-02-19T19:52:42.136Z,17.23
2019-02-19T19:54:52.932Z,14.40
2019-02-19T19:57:04.498Z,16.97
2019-02-19T19:59:16.493Z,18.23
2019-02-19T20:01:27.335Z,19.87
2019-02-19T20:03:38.226Z,16.70
2019-02-19T20:05:49.091Z,16.83
2019-02-19T20:08:00.028Z,17.93
2019-02-19T20:10:52.487Z,14.33
2019-02-19T20:13:03.410Z,14.90
2019-02-19T20:15:14.284Z,14.07
2019-02-19T20:17:25.107Z,13.13
2019-02-19T20:19:35.970Z,13.63
2019-02-19T20:21:46.890Z,11.93
2019-02-19T20:23:57.817Z,17.40
2019-02-19T20:26:08.649Z,11.70
2019-02-19T20:28:19.489Z,11.90
2019-02-19T20:30:30.301Z,11.23
2019-02-19T20:32:41.152Z,11.27
2019-02-19T20:34:52.052Z,11.67
2019-02-19T20:37:03.023Z,12.10
2019-02-19T20:39:13.833Z,11.03
2019-02-19T20:41:24.659Z,12.60
2019-02-19T20:43:35.521Z,11.10
2019-02-19T20:45:46.340Z,11.57
2019-02-19T20:47:57.179Z,13.57
2019-02-19T20:50:49.630Z,13.30
2019-02-19T20:53:00.465Z,13.23
2019-02-19T20:55:11.384Z,13.40
2019-02-19T20:57:22.218Z,14.13
2019-02-19T20:59:33.063Z,12.07
2019-02-19T21:01:43.896Z,14.13
2019-02-19T21:03:54.848Z,15.33
2019-02-19T21:06:05.676Z,12.90
2019-02-19T21:08:16.563Z,13.00
2019-02-19T21:10:27.377Z,15.77
2019-02-19T21:12:38.203Z,14.13
2019-02-19T21:14:49.039Z,14.27
2019-02-19T21:16:59.918Z,13.47
2019-02-19T21:19:10.759Z,14.03
2019-02-19T21:21:21.628Z,16.80
2019-02-19T21:23:32.459Z,15.33
2019-02-19T21:25:43.282Z,17.33
2019-02-19T21:27:54.108Z,15.57
2019-02-19T21:30:24.825Z,17.93
2019-02-19T21:32:35.667Z,18.30
2019-02-19T21:34:46.500Z,17.00
2019-02-19T21:36:57.349Z,17.10
2019-02-19T21:39:08.255Z,17.47
2019-02-19T21:41:19.091Z,15.73
2019-02-19T21:43:30.013Z,17.17
2019-02-19T21:45:40.885Z,16.43
2019-02-19T21:47:51.719Z,16.13
2019-02-19T21:50:44.207Z,11.17
2019-02-19T21:52:55.008Z,13.33
2019-02-19T21:55:47.515Z,11.77
2019-02-19T21:57:59.693Z,11.93
2019-02-19T22:00:52.659Z,13.17
2019-02-19T22:03:03.508Z,11.63
2019-02-19T22:05:14.351Z,13.10
2019-02-19T22:07:25.185Z,10.40
2019-02-19T22:09:35.968Z,12.57
2019-02-19T22:11:46.805Z,11.47
2019-02-19T22:13:57.596Z,12.67
2019-02-19T22:16:08.432Z,11.07
2019-02-19T22:18:19.219Z,12.03
2019-02-19T22:20:49.958Z,14.20
2019-02-19T22:23:00.764Z,11.53
2019-02-19T22:25:11.548Z,12.00
2019-02-19T22:27:22.370Z,12.27
2019-02-19T22:29:33.193Z,13.50
2019-02-19T22:31:44.050Z,11.47
2019-02-19T22:33:54.940Z,12.37
2019-02-19T22:36:05.822Z,11.97
2019-02-19T22:38:16.655Z,11.80
2019-02-19T22:40:27.486Z,13.20
2019-02-19T22:42:38.298Z,13.57
2019-02-19T22:44:49.104Z,13.43
2019-02-19T22:47:00.045Z,12.50
2019-02-19T22:49:10.850Z,11.17
2019-02-19T22:51:21.674Z,11.83
2019-02-19T22:53:52.358Z,12.07
2019-02-19T22:58:35.563Z,10.87
2019-02-19T23:03:38.705Z,12.03
2019-02-19T23:05:49.619Z,12.13
2019-02-19T23:08:00.448Z,13.47
2019-02-19T23:10:11.244Z,12.93
2019-02-19T23:12:22.037Z,13.60
2019-02-19T23:14:32.960Z,16.07
2019-02-19T23:16:43.753Z,15.40
2019-02-19T23:18:54.595Z,11.87
2019-02-19T23:21:05.439Z,13.30
2019-02-19T23:23:16.240Z,14.83
2019-02-19T23:25:27.106Z,15.67
2019-02-19T23:27:37.915Z,13.90
2019-02-19T23:29:48.731Z,12.57
2019-02-19T23:31:59.516Z,12.67
2019-02-19T23:34:10.336Z,14.03
2019-02-19T23:36:41.017Z,15.70
2019-02-19T23:38:51.846Z,14.00
2019-02-19T23:41:02.752Z,11.63
2019-02-19T23:43:13.536Z,13.17
2019-02-19T23:45:24.384Z,12.43
2019-02-19T23:47:35.189Z,13.67
2019-02-19T23:49:46.005Z,13.40
2019-02-19T23:51:56.805Z,12.30
2019-02-19T23:54:07.611Z,13.97
2019-02-19T23:56:18.412Z,14.17
2019-02-19T23:58:29.219Z,13.83
